createdAt,value
2022-12-08T00:01:15.319Z,11.63
2022-12-08T00:03:42.957Z,11.90
2022-12-08T00:06:49.204Z,11.47
2022-12-08T00:09:23.267Z,18.63
2022-12-08T00:11:50.428Z,12.10
2022-12-08T00:14:17.362Z,12.63
2022-12-08T00:16:44.728Z,12.20
2022-12-08T00:19:11.583Z,12.03
2022-12-08T00:21:38.827Z,11.80
2022-12-08T00:24:05.794Z,12.13
2022-12-08T00:26:32.955Z,11.80
2022-12-08T00:29:00.353Z,11.77
2022-12-08T00:31:27.909Z,11.97
2022-12-08T00:33:54.854Z,12.33
2022-12-08T00:36:22.013Z,12.30
2022-12-08T00:38:48.843Z,12.30
2022-12-08T00:41:19.414Z,12.00
2022-12-08T00:43:46.277Z,13.70
2022-12-08T00:46:13.434Z,12.17
2022-12-08T00:48:40.334Z,11.87
2022-12-08T00:51:07.540Z,12.70
2022-12-08T00:53:34.408Z,12.47
2022-12-08T00:56:01.594Z,11.97
2022-12-08T00:58:29.261Z,12.37
2022-12-08T01:00:56.686Z,12.47
2022-12-08T01:03:23.650Z,11.70
2022-12-08T01:05:50.804Z,11.80
2022-12-08T01:08:18.481Z,11.40
2022-12-08T01:10:46.123Z,11.83
2022-12-08T01:13:12.960Z,10.50
2022-12-08T01:15:40.118Z,10.57
2022-12-08T01:18:06.983Z,10.67
2022-12-08T01:20:34.346Z,11.77
2022-12-08T01:23:01.180Z,12.23
2022-12-08T01:25:28.325Z,11.53
2022-12-08T01:27:55.173Z,10.70
2022-12-08T01:30:22.469Z,18.10
2022-12-08T01:32:49.395Z,12.23
2022-12-08T01:35:16.665Z,12.93
2022-12-08T01:37:43.529Z,13.13
2022-12-08T01:40:10.853Z,13.93
2022-12-08T01:42:38.441Z,12.67
2022-12-08T01:45:08.217Z,13.80
2022-12-08T01:47:41.850Z,13.70
2022-12-08T01:50:11.986Z,14.60
2022-12-08T01:52:48.091Z,14.67
2022-12-08T01:55:15.481Z,14.87
2022-12-08T01:57:48.614Z,14.70
2022-12-08T02:00:18.581Z,14.13
2022-12-08T02:02:59.189Z,14.47
2022-12-08T02:05:29.643Z,15.17
2022-12-08T02:07:57.697Z,15.47
2022-12-08T02:10:28.534Z,16.20
2022-12-08T02:12:56.564Z,16.17
2022-12-08T02:15:32.440Z,14.67
2022-12-08T02:18:13.710Z,16.47
2022-12-08T02:21:05.025Z,15.67
2022-12-08T02:23:41.594Z,15.53
2022-12-08T02:26:33.551Z,14.67
2022-12-08T02:29:25.202Z,16.73
2022-12-08T02:32:16.923Z,14.80
2022-12-08T02:35:18.663Z,16.47
2022-12-08T02:38:01.726Z,15.90
2022-12-08T02:40:32.127Z,15.47
2022-12-08T02:43:08.954Z,15.73
2022-12-08T02:45:38.690Z,15.60
2022-12-08T02:48:06.092Z,16.23
2022-12-08T02:50:32.973Z,16.20
2022-12-08T02:53:00.110Z,16.30
2022-12-08T02:55:49.430Z,16.10
2022-12-08T02:58:37.636Z,17.43
2022-12-08T03:01:53.925Z,16.30
2022-12-08T03:04:29.936Z,15.70
2022-12-08T03:06:59.107Z,16.17
2022-12-08T03:09:35.098Z,16.03
2022-12-08T03:12:04.803Z,16.40
2022-12-08T03:14:34.161Z,15.40
2022-12-08T03:17:01.287Z,16.63
2022-12-08T03:19:34.962Z,15.87
2022-12-08T03:22:03.841Z,16.73
2022-12-08T03:24:33.006Z,15.87
2022-12-08T03:27:03.386Z,17.00
2022-12-08T03:29:32.597Z,16.40
2022-12-08T03:32:08.008Z,16.00
2022-12-08T03:34:36.047Z,15.07
2022-12-08T03:37:02.901Z,14.20
2022-12-08T03:39:30.290Z,15.47
2022-12-08T03:41:57.200Z,14.40
2022-12-08T03:44:24.314Z,15.53
2022-12-08T03:46:51.206Z,15.33
2022-12-08T03:49:18.314Z,14.50
2022-12-08T03:51:45.272Z,15.30
2022-12-08T03:54:12.392Z,14.10
2022-12-08T03:56:39.657Z,13.87
2022-12-08T03:59:07.647Z,13.80
2022-12-08T04:01:34.942Z,14.90
2022-12-08T04:04:02.552Z,15.67
2022-12-08T04:06:29.391Z,14.93
2022-12-08T04:08:56.582Z,15.17
2022-12-08T04:11:23.479Z,14.90
2022-12-08T04:13:50.627Z,15.07
2022-12-08T04:16:20.621Z,15.43
2022-12-08T04:18:48.192Z,15.13
2022-12-08T04:21:15.216Z,15.10
2022-12-08T04:23:42.934Z,14.33
2022-12-08T04:26:09.828Z,15.60
2022-12-08T04:28:37.079Z,15.27
2022-12-08T04:31:04.350Z,15.57
2022-12-08T04:33:31.567Z,15.10
2022-12-08T04:35:58.548Z,15.03
2022-12-08T04:38:25.854Z,14.77
2022-12-08T04:40:52.726Z,16.50
2022-12-08T04:43:20.000Z,15.73
2022-12-08T04:45:47.190Z,15.20
2022-12-08T04:48:14.633Z,14.80
2022-12-08T04:50:43.451Z,16.43
2022-12-08T04:53:11.992Z,15.10
2022-12-08T04:55:41.254Z,15.27
2022-12-08T04:58:14.222Z,17.67
2022-12-08T05:00:44.261Z,14.90
2022-12-08T05:03:12.078Z,16.10
2022-12-08T05:05:39.175Z,35.90
2022-12-08T05:08:06.567Z,17.90
2022-12-08T05:10:33.505Z,17.27
2022-12-08T05:13:01.000Z,17.53
2022-12-08T05:15:28.153Z,16.60
2022-12-08T05:17:55.464Z,16.00
2022-12-08T05:20:22.642Z,15.40
2022-12-08T05:22:50.087Z,16.07
2022-12-08T05:25:17.135Z,15.77
2022-12-08T05:27:44.375Z,15.97
2022-12-08T05:30:11.707Z,16.53
2022-12-08T05:32:38.951Z,15.70
2022-12-08T05:35:06.350Z,16.17
2022-12-08T05:37:33.460Z,20.57
2022-12-08T05:40:00.843Z,16.60
2022-12-08T05:42:28.035Z,21.87
2022-12-08T05:44:54.960Z,18.77
2022-12-08T05:47:22.074Z,22.87
2022-12-08T05:49:48.947Z,21.53
2022-12-08T05:52:17.026Z,18.47
2022-12-08T05:54:44.260Z,16.00
2022-12-08T05:57:11.605Z,16.13
2022-12-08T05:59:39.130Z,16.40
2022-12-08T06:02:06.384Z,17.07
2022-12-08T06:04:33.443Z,16.37
2022-12-08T06:07:00.553Z,16.43
2022-12-08T06:09:27.511Z,17.63
2022-12-08T06:11:54.661Z,16.47
2022-12-08T06:14:21.519Z,16.73
2022-12-08T06:16:48.686Z,16.90
2022-12-08T06:19:16.267Z,16.13
2022-12-08T06:21:43.683Z,17.63
2022-12-08T06:24:11.897Z,15.20
2022-12-08T06:26:41.404Z,14.67
2022-12-08T06:29:08.261Z,16.97
2022-12-08T06:31:35.523Z,22.53
2022-12-08T06:34:02.444Z,18.37
2022-12-08T06:36:30.183Z,20.60
2022-12-08T06:38:57.089Z,36.67
2022-12-08T06:41:24.815Z,29.33
2022-12-08T06:43:51.690Z,23.53
2022-12-08T06:46:20.273Z,24.07
2022-12-08T06:48:47.827Z,21.37
2022-12-08T06:51:17.383Z,23.23
2022-12-08T06:53:45.675Z,30.53
2022-12-08T06:56:14.540Z,23.80
2022-12-08T06:58:46.131Z,23.00
2022-12-08T07:01:17.844Z,22.97
2022-12-08T07:03:44.762Z,19.30
2022-12-08T07:06:16.925Z,35.40
2022-12-08T07:08:44.047Z,18.53
2022-12-08T07:11:15.277Z,18.20
2022-12-08T07:13:45.166Z,20.13
2022-12-08T07:16:12.825Z,42.57
2022-12-08T07:18:39.895Z,17.50
2022-12-08T07:21:10.258Z,20.10
2022-12-08T07:23:37.900Z,84.80
2022-12-08T07:26:07.833Z,51.40
2022-12-08T07:28:36.982Z,21.70
2022-12-08T07:31:04.819Z,16.50
2022-12-08T07:33:32.979Z,20.20
2022-12-08T07:36:02.562Z,18.27
2022-12-08T07:38:29.761Z,23.47
2022-12-08T07:40:57.025Z,20.07
2022-12-08T07:43:24.102Z,41.20
2022-12-08T07:45:51.533Z,27.03
2022-12-08T07:48:19.265Z,21.07
2022-12-08T07:50:46.760Z,14.80
2022-12-08T07:53:13.841Z,14.60
2022-12-08T07:55:41.807Z,17.17
2022-12-08T07:58:09.078Z,15.13
2022-12-08T08:00:36.395Z,14.73
2022-12-08T08:03:03.540Z,27.97
2022-12-08T08:05:30.732Z,19.23
2022-12-08T08:07:57.656Z,31.80
2022-12-08T08:10:24.830Z,45.40
2022-12-08T08:12:51.651Z,28.03
2022-12-08T08:15:20.430Z,33.17
2022-12-08T08:17:51.503Z,41.83
2022-12-08T08:20:19.648Z,44.13
2022-12-08T08:22:47.412Z,28.00
2022-12-08T08:25:15.445Z,23.23
2022-12-08T08:27:42.677Z,24.00
2022-12-08T08:30:15.351Z,25.00
2022-12-08T08:32:48.710Z,35.43
2022-12-08T08:35:16.024Z,20.50
2022-12-08T08:37:47.254Z,22.07
2022-12-08T08:40:17.323Z,21.57
2022-12-08T08:42:44.199Z,17.50
2022-12-08T08:45:11.672Z,19.33
2022-12-08T08:47:38.552Z,15.27
2022-12-08T08:50:06.823Z,15.77
2022-12-08T08:52:33.871Z,15.93
2022-12-08T08:55:01.296Z,20.33
2022-12-08T08:57:28.332Z,23.87
2022-12-08T08:59:55.559Z,14.67
2022-12-08T09:02:22.462Z,18.07
2022-12-08T09:04:49.740Z,18.77
2022-12-08T09:07:16.995Z,14.33
2022-12-08T09:09:44.211Z,14.27
2022-12-08T09:12:11.378Z,11.60
2022-12-08T09:14:38.872Z,12.37
2022-12-08T09:17:06.872Z,12.27
2022-12-08T09:19:34.759Z,17.03
2022-12-08T09:22:01.727Z,31.63
2022-12-08T09:24:29.091Z,19.93
2022-12-08T09:26:55.966Z,24.23
2022-12-08T09:29:23.112Z,20.93
2022-12-08T09:31:50.073Z,19.60
2022-12-08T09:34:18.343Z,21.80
2022-12-08T09:36:45.197Z,23.67
2022-12-08T09:39:12.382Z,28.63
2022-12-08T09:41:48.187Z,22.47
2022-12-08T09:44:40.796Z,16.70
2022-12-08T09:47:37.647Z,15.20
2022-12-08T09:50:12.544Z,14.70
2022-12-08T09:52:49.146Z,15.77
2022-12-08T09:55:22.770Z,18.20
2022-12-08T09:57:56.668Z,22.67
2022-12-08T10:00:24.287Z,20.20
2022-12-08T10:02:51.190Z,14.97
2022-12-08T10:05:18.386Z,16.53
2022-12-08T10:07:57.694Z,25.13
2022-12-08T10:10:38.630Z,16.17
2022-12-08T10:13:22.424Z,12.93
2022-12-08T10:16:28.004Z,15.37
2022-12-08T10:19:02.350Z,18.67
2022-12-08T10:21:30.432Z,17.80
2022-12-08T10:24:04.921Z,23.00
2022-12-08T10:26:32.975Z,19.93
2022-12-08T10:29:02.874Z,21.10
2022-12-08T10:31:31.020Z,22.43
2022-12-08T10:34:01.129Z,19.80
2022-12-08T10:36:48.529Z,17.87
2022-12-08T10:39:38.072Z,15.97
2022-12-08T10:42:08.409Z,13.40
2022-12-08T10:44:50.493Z,14.10
2022-12-08T10:47:21.259Z,16.83
2022-12-08T10:49:48.098Z,18.00
2022-12-08T10:52:24.908Z,15.70
2022-12-08T10:54:54.821Z,16.27
2022-12-08T10:57:23.609Z,18.27
2022-12-08T10:59:50.495Z,17.73
2022-12-08T11:02:20.638Z,19.30
2022-12-08T11:04:48.015Z,19.17
2022-12-08T11:07:21.931Z,23.07
2022-12-08T11:09:50.873Z,19.57
2022-12-08T11:12:20.053Z,27.50
2022-12-08T11:15:01.423Z,36.93
2022-12-08T11:17:29.753Z,38.13
2022-12-08T11:20:08.888Z,24.10
2022-12-08T11:22:42.243Z,21.10
2022-12-08T11:25:11.685Z,20.80
2022-12-08T11:27:43.478Z,24.73
2022-12-08T11:30:28.339Z,27.67
2022-12-08T11:32:59.633Z,22.97
2022-12-08T11:35:30.583Z,20.63
2022-12-08T11:38:20.494Z,21.50
2022-12-08T11:40:50.994Z,23.00
2022-12-08T11:43:35.818Z,21.57
2022-12-08T11:46:13.232Z,24.43
2022-12-08T11:48:46.572Z,24.20
2022-12-08T11:51:34.873Z,23.83
2022-12-08T11:54:23.935Z,22.20
2022-12-08T11:57:02.620Z,23.40
2022-12-08T11:59:32.859Z,23.87
2022-12-08T12:02:01.476Z,30.50
2022-12-08T12:04:38.981Z,25.77
2022-12-08T12:07:26.504Z,26.87
2022-12-08T12:10:02.778Z,22.37
2022-12-08T12:12:57.479Z,27.63
2022-12-08T12:15:27.956Z,26.73
2022-12-08T12:18:13.337Z,22.17
2022-12-08T12:21:05.152Z,27.30
2022-12-08T12:23:50.613Z,26.97
2022-12-08T12:26:21.376Z,18.70
2022-12-08T12:29:01.065Z,21.73
2022-12-08T12:31:43.943Z,20.47
2022-12-08T12:34:22.826Z,18.27
2022-12-08T12:36:56.781Z,16.87
2022-12-08T12:39:28.313Z,22.70
2022-12-08T12:41:58.167Z,23.70
2022-12-08T12:44:37.614Z,19.87
2022-12-08T12:47:10.793Z,17.67
2022-12-08T12:49:40.733Z,16.80
2022-12-08T12:52:18.114Z,20.73
2022-12-08T12:55:10.552Z,17.37
2022-12-08T12:57:39.603Z,15.83
2022-12-08T13:00:18.728Z,15.27
2022-12-08T13:02:48.830Z,16.47
2022-12-08T13:05:23.341Z,16.17
2022-12-08T13:08:04.075Z,16.83
2022-12-08T13:10:36.848Z,14.60
2022-12-08T13:13:10.015Z,14.10
2022-12-08T13:15:41.828Z,14.57
2022-12-08T13:18:27.977Z,16.60
2022-12-08T13:21:03.323Z,15.87
2022-12-08T13:23:36.592Z,14.60
2022-12-08T13:26:12.531Z,14.50
2022-12-08T13:28:58.205Z,15.37
2022-12-08T13:31:49.764Z,18.13
2022-12-08T13:34:30.587Z,15.80
2022-12-08T13:37:11.307Z,16.60
2022-12-08T13:39:41.206Z,14.53
2022-12-08T13:42:20.344Z,26.13
2022-12-08T13:46:04.361Z,14.43
2022-12-08T13:57:05.526Z,17.37
2022-12-08T13:59:35.727Z,14.37
2022-12-08T14:02:17.825Z,14.67
2022-12-08T14:05:17.042Z,12.33
2022-12-08T14:07:34.789Z,14.83
2022-12-08T14:10:03.622Z,13.00
2022-12-08T14:12:31.023Z,12.43
2022-12-08T14:15:06.194Z,12.83
2022-12-08T14:17:33.923Z,12.07
2022-12-08T14:20:22.654Z,15.53
2022-12-08T14:22:50.821Z,16.20
2022-12-08T14:25:18.233Z,163.40
2022-12-08T14:27:46.582Z,33.47
2022-12-08T14:30:14.771Z,42.43
2022-12-08T14:32:41.878Z,46.63
2022-12-08T14:35:08.755Z,26.40
2022-12-08T14:37:39.298Z,23.87
2022-12-08T14:40:10.912Z,15.47
2022-12-08T14:42:45.836Z,22.03
2022-12-08T14:45:15.804Z,25.63
2022-12-08T14:47:43.549Z,55.67
2022-12-08T14:50:35.421Z,35.50
2022-12-08T14:53:02.651Z,12.83
2022-12-08T14:55:35.340Z,13.53
2022-12-08T14:58:02.702Z,53.40
2022-12-08T15:00:29.701Z,37.53
2022-12-08T15:02:57.180Z,28.43
2022-12-08T15:05:29.615Z,14.87
2022-12-08T15:08:02.550Z,14.63
2022-12-08T15:10:37.716Z,35.67
2022-12-08T15:13:11.291Z,38.20
2022-12-08T15:15:51.713Z,33.43
2022-12-08T15:18:22.217Z,25.03
2022-12-08T15:20:52.875Z,17.83
2022-12-08T15:23:32.538Z,20.80
2022-12-08T15:25:59.931Z,16.30
2022-12-08T15:28:30.343Z,25.90
2022-12-08T15:30:57.951Z,29.07
2022-12-08T15:33:25.167Z,23.67
2022-12-08T15:35:52.105Z,24.63
2022-12-08T15:38:29.092Z,19.77
2022-12-08T15:40:58.683Z,90.53
2022-12-08T15:43:26.117Z,82.00
2022-12-08T15:45:59.618Z,105.50
2022-12-08T15:48:29.450Z,103.70
2022-12-08T15:50:56.897Z,55.40
2022-12-08T15:53:24.045Z,54.30
2022-12-08T15:56:25.939Z,38.43
2022-12-08T15:58:53.641Z,32.60
2022-12-08T16:01:21.981Z,24.50
2022-12-08T16:09:31.709Z,28.30
2022-12-08T16:12:18.026Z,29.87
2022-12-08T16:17:33.333Z,35.97
2022-12-08T16:20:01.201Z,78.17
2022-12-08T16:25:21.383Z,49.60
2022-12-08T16:28:29.873Z,36.90
2022-12-08T16:30:41.955Z,45.30
2022-12-08T16:33:10.520Z,47.83
2022-12-08T16:35:37.925Z,50.80
2022-12-08T16:38:04.942Z,54.17
2022-12-08T16:40:32.243Z,48.60
2022-12-08T16:42:59.096Z,47.93
2022-12-08T16:45:28.695Z,46.70
2022-12-08T16:48:00.307Z,33.93
2022-12-08T16:50:28.611Z,42.73
2022-12-08T16:53:04.089Z,30.10
2022-12-08T16:55:31.739Z,41.03
2022-12-08T16:57:58.889Z,56.47
2022-12-08T17:00:27.679Z,25.90
2022-12-08T17:02:55.357Z,29.30
2022-12-08T17:05:25.074Z,34.10
2022-12-08T17:07:52.812Z,27.93
2022-12-08T17:10:26.072Z,30.83
2022-12-08T17:12:53.531Z,28.53
2022-12-08T17:15:23.186Z,37.17
2022-12-08T17:17:50.563Z,34.77
2022-12-08T17:20:23.335Z,27.93
2022-12-08T17:22:50.756Z,32.77
2022-12-08T17:25:17.951Z,36.50
2022-12-08T17:27:44.798Z,36.13
2022-12-08T17:30:15.608Z,46.07
2022-12-08T17:32:43.183Z,36.90
2022-12-08T17:35:10.975Z,111.90
2022-12-08T17:37:37.922Z,112.43
2022-12-08T17:40:06.199Z,43.83
2022-12-08T17:42:33.276Z,56.63
2022-12-08T17:45:00.428Z,39.53
2022-12-08T17:47:27.334Z,36.87
2022-12-08T17:49:56.148Z,212.63
2022-12-08T17:52:23.039Z,494.67
2022-12-08T17:54:50.314Z,62.30
2022-12-08T17:57:17.136Z,42.00
2022-12-08T17:59:44.349Z,91.60
2022-12-08T18:02:15.160Z,35.43
2022-12-08T18:04:42.408Z,33.27
2022-12-08T18:07:09.270Z,120.40
2022-12-08T18:09:36.626Z,370.83
2022-12-08T18:12:03.720Z,542.03
2022-12-08T18:14:30.973Z,487.13
2022-12-08T18:16:58.037Z,410.13
2022-12-08T18:19:26.289Z,81.53
2022-12-08T18:21:53.189Z,65.13
2022-12-08T18:24:23.303Z,78.27
2022-12-08T18:26:52.301Z,34.23
2022-12-08T18:29:21.171Z,31.60
2022-12-08T18:31:48.451Z,35.03
2022-12-08T18:34:15.855Z,79.23
2022-12-08T18:36:42.771Z,32.37
2022-12-08T18:39:23.873Z,38.23
2022-12-08T18:41:51.945Z,278.30
2022-12-08T18:44:19.454Z,255.17
2022-12-08T18:46:46.394Z,54.53
2022-12-08T18:49:15.970Z,59.20
2022-12-08T18:51:43.309Z,43.17
2022-12-08T18:54:12.139Z,33.20
2022-12-08T18:56:39.450Z,30.67
2022-12-08T18:59:10.249Z,53.57
2022-12-08T19:01:38.695Z,36.43
2022-12-08T19:06:54.739Z,39.90
2022-12-08T19:09:22.671Z,43.50
2022-12-08T19:11:49.730Z,44.50
2022-12-08T19:14:16.879Z,34.07
2022-12-08T19:16:44.635Z,124.90
2022-12-08T19:19:11.879Z,261.50
2022-12-08T19:21:44.528Z,407.30
2022-12-08T19:24:13.454Z,467.40
2022-12-08T19:26:40.329Z,70.87
2022-12-08T19:29:07.538Z,58.70
2022-12-08T19:31:34.563Z,65.20
2022-12-08T19:34:01.938Z,49.17
2022-12-08T19:36:35.255Z,38.67
2022-12-08T19:39:23.464Z,44.13
2022-12-08T19:42:09.334Z,38.70
2022-12-08T19:44:54.961Z,132.00
2022-12-08T19:47:26.467Z,304.43
2022-12-08T19:49:55.163Z,453.43
2022-12-08T19:52:22.382Z,446.23
2022-12-08T19:54:49.613Z,79.47
2022-12-08T19:57:16.434Z,74.33
2022-12-08T19:59:43.623Z,47.53
2022-12-08T20:02:11.148Z,37.33
2022-12-08T20:04:38.459Z,255.13
2022-12-08T20:07:05.378Z,367.13
2022-12-08T20:09:32.506Z,341.90
2022-12-08T20:11:59.359Z,67.47
2022-12-08T20:14:26.525Z,70.97
2022-12-08T20:16:53.501Z,43.83
2022-12-08T20:19:21.016Z,32.03
2022-12-08T20:21:48.830Z,43.37
2022-12-08T20:24:16.757Z,59.93
2022-12-08T20:26:43.684Z,28.77
2022-12-08T20:29:11.652Z,26.67
2022-12-08T20:31:38.607Z,32.17
2022-12-08T20:34:06.156Z,45.00
2022-12-08T20:36:33.293Z,27.03
2022-12-08T20:39:00.463Z,26.23
2022-12-08T20:41:27.373Z,87.03
2022-12-08T20:43:54.597Z,150.70
2022-12-08T20:46:21.886Z,75.87
2022-12-08T20:48:49.195Z,73.47
2022-12-08T20:51:17.728Z,24.70
2022-12-08T20:53:45.755Z,25.73
2022-12-08T20:56:17.496Z,38.33
2022-12-08T20:58:45.485Z,46.80
2022-12-08T21:01:15.211Z,21.10
2022-12-08T21:03:43.517Z,21.20
2022-12-08T21:06:11.225Z,22.93
2022-12-08T21:08:38.910Z,21.87
2022-12-08T21:11:06.256Z,26.43
2022-12-08T21:13:33.932Z,21.33
2022-12-08T21:16:00.950Z,27.27
2022-12-08T21:18:28.575Z,21.57
2022-12-08T21:21:06.594Z,21.07
2022-12-08T21:23:35.061Z,21.20
2022-12-08T21:26:02.267Z,21.27
2022-12-08T21:28:29.523Z,21.47
2022-12-08T21:30:56.483Z,73.90
2022-12-08T21:33:23.785Z,60.73
2022-12-08T21:36:01.884Z,35.40
2022-12-08T21:38:29.259Z,32.63
2022-12-08T21:40:56.303Z,23.37
2022-12-08T21:43:23.513Z,22.67
2022-12-08T21:45:50.643Z,19.40
2022-12-08T21:48:18.089Z,20.23
2022-12-08T21:50:45.095Z,20.43
2022-12-08T21:53:12.819Z,21.83
2022-12-08T21:55:40.112Z,22.30
2022-12-08T21:58:07.317Z,26.90
2022-12-08T22:00:34.533Z,23.23
2022-12-08T22:03:01.916Z,24.17
2022-12-08T22:05:29.243Z,20.50
2022-12-08T22:07:56.542Z,19.43
2022-12-08T22:10:23.772Z,19.20
2022-12-08T22:12:51.069Z,18.73
2022-12-08T22:15:18.252Z,19.77
2022-12-08T22:17:45.630Z,22.10
2022-12-08T22:20:14.612Z,19.13
2022-12-08T22:22:42.281Z,21.67
2022-12-08T22:25:12.536Z,19.73
2022-12-08T22:27:40.476Z,27.93
2022-12-08T22:30:08.903Z,187.03
2022-12-08T22:32:37.101Z,87.67
2022-12-08T22:35:04.181Z,27.97
2022-12-08T22:37:31.655Z,24.53
2022-12-08T22:39:58.593Z,21.83
2022-12-08T22:42:26.598Z,22.30
2022-12-08T22:44:53.372Z,23.17
2022-12-08T22:47:20.708Z,23.90
2022-12-08T22:49:47.521Z,21.43
2022-12-08T22:52:14.820Z,21.77
2022-12-08T22:54:41.956Z,22.60
2022-12-08T22:57:09.148Z,21.67
2022-12-08T22:59:36.149Z,19.63
2022-12-08T23:02:03.329Z,19.80
2022-12-08T23:04:30.423Z,19.10
2022-12-08T23:06:57.813Z,20.53
2022-12-08T23:09:24.711Z,23.17
2022-12-08T23:11:51.955Z,20.37
2022-12-08T23:14:18.824Z,18.90
2022-12-08T23:16:46.017Z,19.43
2022-12-08T23:19:12.974Z,20.73
2022-12-08T23:21:40.235Z,19.40
2022-12-08T23:24:07.396Z,18.60
2022-12-08T23:26:35.359Z,19.57
2022-12-08T23:29:02.904Z,18.83
2022-12-08T23:31:30.432Z,23.93
2022-12-08T23:33:57.463Z,25.23
2022-12-08T23:36:26.542Z,23.63
2022-12-08T23:38:54.599Z,20.57
2022-12-08T23:41:22.080Z,20.40
2022-12-08T23:43:51.313Z,60.90
2022-12-08T23:46:20.383Z,38.10
2022-12-08T23:48:47.452Z,24.23
2022-12-08T23:51:15.502Z,20.33
2022-12-08T23:53:43.131Z,19.20
2022-12-08T23:56:13.297Z,24.73
2022-12-08T23:58:42.832Z,22.27
